Time;durP1;ratioP1;P1;durP2;ratioP2;P2;SDS_P1;SDS_P2;PMS_P1;PMS_P2;Temp;Humidity;BMP_temperature;BMP_pressure;BME280_temperature;BME280_humidity;BME280_pressure;Samples;Min_cycle;Max_cycle;Signal;HPM_P1;HPM_P2
2023/01/07 00:00:50;;;;;;;3.45;1.73;;;13.10;91.70;;;11.86;76.75;100705.41;6149343;23;20028;-79
2023/01/07 00:03:19;;;;;;;3.88;1.80;;;13.00;91.40;;;11.84;77.34;100696.75;6149353;23;20028;-79
2023/01/07 00:05:46;;;;;;;4.97;2.03;;;13.00;91.70;;;11.87;77.42;100703.53;6149342;23;20025;-80
2023/01/07 00:08:13;;;;;;;3.53;1.55;;;13.00;91.80;;;11.90;77.33;100692.41;6149570;23;20021;-80
2023/01/07 00:10:40;;;;;;;3.50;1.42;;;13.10;91.90;;;11.89;77.22;100694.25;6150087;23;20021;-79
2023/01/07 00:13:07;;;;;;;5.00;1.90;;;13.10;91.80;;;11.84;77.43;100692.22;6149273;23;20025;-80
2023/01/07 00:15:34;;;;;;;3.15;1.70;;;13.00;91.80;;;11.84;77.14;100692.22;6149644;23;20017;-80
2023/01/07 00:18:01;;;;;;;5.90;1.80;;;13.20;91.60;;;11.86;77.14;100692.03;6149189;23;20360;-80
2023/01/07 00:20:30;;;;;;;3.78;1.70;;;13.00;91.60;;;11.87;77.07;100693.66;6149517;23;20028;-80
2023/01/07 00:22:57;;;;;;;3.20;1.80;;;13.00;91.70;;;11.84;76.97;100692.22;6149509;23;20021;-80
2023/01/07 00:25:24;;;;;;;2.97;1.70;;;13.10;91.60;;;11.84;77.06;100691.41;6149744;23;20085;-80
2023/01/07 00:27:51;;;;;;;3.83;1.77;;;13.00;91.50;;;11.85;77.06;100682.34;6149767;23;20025;-80
2023/01/07 00:30:19;;;;;;;2.95;1.60;;;13.00;91.70;;;11.87;77.22;100682.97;6149653;23;20033;-80
2023/01/07 00:32:58;;;;;;;4.00;1.80;;;13.00;91.70;;;11.88;76.93;100667.75;6149378;23;20022;-80
2023/01/07 00:35:25;;;;;;;3.60;1.80;;;13.00;91.60;;;11.87;76.91;100669.63;6149766;23;20045;-80
2023/01/07 00:37:55;;;;;;;4.25;2.10;;;13.00;91.50;;;11.91;76.66;100684.19;6147238;23;20376;-80
2023/01/07 00:40:22;;;;;;;4.03;1.98;;;13.10;91.60;;;11.92;76.58;100679.66;6150116;23;20032;-80
2023/01/07 00:43:00;;;;;;;5.63;2.20;;;13.00;91.50;;;11.93;76.60;100686.63;6149481;23;20018;-80
2023/01/07 00:45:30;;;;;;;11.77;2.65;;;13.10;91.50;;;11.93;76.61;100674.09;6150070;23;20021;-80
2023/01/07 00:47:58;;;;;;;4.80;2.30;;;13.10;91.50;;;11.94;76.65;100674.91;6147795;23;20036;-80
2023/01/07 00:50:29;;;;;;;4.00;2.30;;;13.10;91.50;;;11.96;76.42;100671.00;6150072;23;20022;-80
2023/01/07 00:52:58;;;;;;;7.13;2.33;;;13.10;91.40;;;11.98;75.99;100666.25;6151823;23;20337;-80
2023/01/07 00:55:26;;;;;;;4.25;2.30;;;13.10;91.20;;;11.94;75.78;100669.56;6149374;23;20045;-80
2023/01/07 00:57:54;;;;;;;9.88;2.60;;;13.10;91.00;;;11.84;76.53;100670.84;6149652;23;20109;-80
2023/01/07 01:00:23;;;;;;;4.45;2.13;;;13.00;91.30;;;11.86;76.89;100657.28;6149878;23;20030;-80
2023/01/07 01:02:52;;;;;;;4.00;2.10;;;13.10;91.50;;;11.87;76.45;100656.25;6150032;23;20514;-80
2023/01/07 01:05:21;;;;;;;3.50;1.67;;;13.10;91.30;;;11.90;76.25;100657.66;6150079;23;20108;-80
2023/01/07 01:07:48;;;;;;;4.03;1.73;;;13.10;91.40;;;11.91;76.41;100660.13;6149778;23;20029;-80
2023/01/07 01:10:20;;;;;;;3.50;1.63;;;13.10;91.30;;;11.90;75.83;100645.09;6150804;23;20104;-80
2023/01/07 01:12:48;;;;;;;;;;;13.10;90.80;;;11.81;75.99;100641.88;6150197;23;20677;-80
2023/01/07 01:15:16;;;;;;;4.90;1.70;;;13.10;90.90;;;11.69;76.02;100640.09;6149840;23;19921;-80
2023/01/07 01:17:44;;;;;;;4.25;1.55;;;13.00;90.50;;;11.67;76.44;100636.81;6151099;23;20183;-80
2023/01/07 01:20:14;;;;;;;3.95;1.80;;;13.10;91.00;;;11.71;76.74;100630.84;6151943;23;20031;-80
2023/01/07 01:22:42;;;;;;;3.92;1.60;;;13.00;91.20;;;11.74;76.14;100640.25;6149827;23;20132;-80
2023/01/07 01:25:11;;;;;;;5.18;1.83;;;13.00;90.80;;;11.78;76.35;100638.81;6151469;23;20045;-80
2023/01/07 01:27:39;;;;;;;4.20;1.60;;;13.00;91.20;;;11.79;75.99;100635.91;6150552;23;20021;-80
2023/01/07 01:30:08;;;;;;;2.85;1.27;;;13.00;90.80;;;11.79;76.06;100641.25;6151554;23;20032;-80
2023/01/07 01:32:38;;;;;;;2.90;1.50;;;13.00;91.00;;;11.80;76.17;100637.53;6149762;23;20048;-80
2023/01/07 01:35:07;;;;;;;2.92;1.50;;;13.00;91.00;;;11.83;76.37;100636.34;6150780;23;20097;-80
2023/01/07 01:37:34;;;;;;;3.63;1.45;;;13.00;91.20;;;11.85;76.30;100640.41;6148319;23;20033;-80
2023/01/07 01:40:02;;;;;;;5.13;1.40;;;13.00;91.00;;;11.87;75.89;100639.41;6149461;23;20112;-80
2023/01/07 01:42:31;;;;;;;4.68;1.50;;;13.00;90.80;;;11.87;75.94;100648.22;6149233;23;20132;-80
2023/01/07 01:45:01;;;;;;;3.95;1.65;;;13.00;90.90;;;11.89;76.04;100640.00;6149209;23;20029;-80
2023/01/07 01:47:40;;;;;;;2.80;1.40;;;13.00;91.00;;;11.90;76.14;100638.94;6148584;23;20076;-80
2023/01/07 01:50:15;;;;;;;3.03;1.45;;;13.10;91.00;;;11.91;76.22;100645.94;6149562;23;20526;-80
2023/01/07 01:52:47;;;;;;;3.10;1.40;;;13.10;91.00;;;11.91;76.11;100644.09;6149010;23;20464;-80
2023/01/07 01:55:19;;;;;;;4.82;1.50;;;13.10;91.00;;;11.92;76.31;100644.91;6151139;23;20029;-80
2023/01/07 01:57:52;;;;;;;3.15;1.60;;;13.10;91.00;;;11.93;75.99;100647.38;6148495;23;20685;-80
2023/01/07 02:00:21;;;;;;;4.35;1.60;;;13.10;90.80;;;11.92;75.87;100639.56;6148815;23;20133;-78
2023/01/07 02:02:55;;;;;;;4.15;1.60;;;13.10;90.80;;;11.93;75.97;100638.53;6148849;23;20022;-79
2023/01/07 02:05:26;;;;;;;4.25;1.50;;;13.10;90.80;;;11.93;75.76;100630.50;6148986;23;20502;-79
2023/01/07 02:07:53;;;;;;;3.97;1.75;;;13.20;90.80;;;11.88;75.88;100623.16;6148079;23;20063;-79
2023/01/07 02:10:23;;;;;;;4.65;1.65;;;13.10;90.60;;;11.91;75.69;100620.03;6148690;23;20084;-79
2023/01/07 02:13:16;;;;;;;5.07;2.03;;;13.10;90.60;;;11.93;75.43;100623.31;6149075;23;20413;-79
2023/01/07 02:15:54;;;;;;;4.90;1.90;;;13.10;90.30;;;11.95;75.06;100617.75;6149121;23;20021;-79
2023/01/07 02:18:45;;;;;;;4.00;1.80;;;13.10;90.40;;;11.95;75.25;100628.44;6150154;23;20096;-79
2023/01/07 02:21:29;;;;;;;3.83;1.73;;;13.10;90.40;;;11.95;75.19;100626.56;6149022;23;20053;-79
2023/01/07 02:24:49;;;;;;;3.88;1.70;;;13.10;90.40;;;11.95;75.06;100620.41;6150635;23;20052;-78
2023/01/07 02:27:35;;;;;;;4.50;1.88;;;13.10;90.20;;;11.95;75.24;100623.09;6142202;23;20450;-78
2023/01/07 02:30:59;;;;;;;3.25;1.85;;;13.10;90.40;;;11.91;75.34;100619.19;6149373;23;20029;-79
2023/01/07 02:33:51;;;;;;;2.97;1.63;;;13.10;90.40;;;11.88;74.86;100623.16;6067253;23;20023;-79
2023/01/07 02:36:34;;;;;;;3.45;1.63;;;13.00;90.00;;;11.90;75.08;100625.59;6146716;23;20096;-78
2023/01/07 02:39:27;;;;;;;4.35;1.80;;;13.10;90.30;;;11.93;75.15;100622.50;6150026;23;20017;-79
2023/01/07 02:41:59;;;;;;;4.35;2.10;;;13.10;90.20;;;11.92;75.01;100615.53;6149268;23;20088;-79
2023/01/07 02:44:38;;;;;;;4.40;1.90;;;13.10;90.20;;;11.94;74.77;100618.78;6147925;23;20112;-79
2023/01/07 02:47:13;;;;;;;3.50;1.67;;;13.10;90.10;;;11.91;73.81;100612.03;6150026;23;20022;-79
2023/01/07 02:49:43;;;;;;;4.55;1.90;;;13.20;89.50;;;11.91;73.94;100621.88;6148425;23;20100;-79
2023/01/07 02:52:21;;;;;;;3.25;1.50;;;13.10;89.60;;;11.91;74.14;100611.19;6148536;23;20029;-79
2023/01/07 02:54:54;;;;;;;5.45;1.80;;;13.10;89.70;;;11.90;74.31;100612.22;6148241;23;20026;-79
2023/01/07 02:57:58;;;;;;;5.45;1.52;;;13.10;89.90;;;11.89;74.54;100603.38;6147395;23;20108;-79
2023/01/07 03:00:55;;;;;;;8.45;2.00;;;13.10;90.00;;;11.88;74.59;100608.97;6148667;23;20025;-80
2023/01/07 03:03:42;;;;;;;3.95;1.55;;;13.10;89.90;;;11.87;74.58;100600.13;6149652;23;20075;-80
2023/01/07 03:06:30;;;;;;;3.60;1.48;;;13.10;89.70;;;11.87;74.60;100602.00;6147222;23;20021;-79
2023/01/07 03:09:10;;;;;;;3.50;1.35;;;13.10;89.80;;;11.87;74.41;100593.97;6150316;23;20630;-80
2023/01/07 03:11:45;;;;;;;6.43;1.70;;;13.10;89.80;;;11.83;74.41;100598.91;6148422;23;20032;-80
2023/01/07 03:14:18;;;;;;;3.67;1.55;;;13.00;89.70;;;11.83;74.78;100582.88;6147764;23;20032;-80
2023/01/07 03:16:54;;;;;;;3.38;1.58;;;13.00;90.00;;;11.85;74.96;100586.97;6147483;23;20017;-80
2023/01/07 03:19:28;;;;;;;2.90;1.38;;;13.10;90.00;;;11.88;74.67;100579.56;6149860;23;20023;-80
2023/01/07 03:21:58;;;;;;;4.78;1.50;;;13.10;90.00;;;11.89;74.35;100576.66;6148400;23;20035;-80
2023/01/07 03:24:28;;;;;;;3.83;1.80;;;13.10;89.90;;;11.85;74.22;100570.13;6148181;23;20040;-80
2023/01/07 03:26:58;;;;;;;7.07;1.90;;;13.00;89.60;;;11.85;74.56;100567.44;6149532;23;20646;-80
2023/01/07 03:29:25;;;;;;;2.75;1.20;;;13.00;89.70;;;11.84;73.73;100573.81;6150381;23;20104;-80
2023/01/07 03:32:00;;;;;;;2.78;1.20;;;13.00;89.10;;;11.83;73.94;100566.84;6148208;23;20044;-79
2023/01/07 03:34:29;;;;;;;2.90;1.48;;;13.00;89.50;;;11.78;74.29;100562.13;6148314;23;20100;-80
2023/01/07 03:37:02;;;;;;;3.88;1.40;;;13.00;89.60;;;11.82;74.17;100566.03;6149647;23;20018;-80
2023/01/07 03:39:34;;;;;;;2.88;1.20;;;13.00;89.50;;;11.83;73.31;100559.66;6148032;23;20399;-80
2023/01/07 03:45:14;;;;;;;2.45;1.10;;;13.00;89.20;;;11.78;73.96;100554.09;6177872;23;20033;-81
2023/01/07 03:47:46;;;;;;;2.90;1.20;;;13.00;89.40;;;11.83;74.03;100556.16;6176326;23;20076;-81
2023/01/07 03:50:14;;;;;;;3.40;1.10;;;13.00;89.50;;;11.84;74.03;100555.94;6177891;23;20497;-80
2023/01/07 03:52:47;;;;;;;2.60;1.20;;;13.00;89.40;;;11.82;74.13;100550.00;6175784;23;20051;-80
2023/01/07 03:55:15;;;;;;;;;;;13.00;89.40;;;11.81;73.47;100553.69;6147760;23;20029;-80
2023/01/07 03:57:42;;;;;;;2.75;0.95;;;13.00;88.90;;;11.77;73.75;100544.47;6146995;23;19917;-80
2023/01/07 04:00:12;;;;;;;2.47;1.10;;;13.00;89.30;;;11.78;73.78;100546.09;6147963;23;20112;-80
2023/01/07 04:02:46;;;;;;;2.42;1.20;;;13.00;89.30;;;11.80;73.81;100546.69;6149572;23;20041;-80
2023/01/07 04:05:22;;;;;;;4.93;1.30;;;13.00;89.10;;;11.80;73.57;100541.34;6147901;23;20021;-80
2023/01/07 04:07:50;;;;;;;2.42;1.02;;;13.00;89.00;;;11.78;72.86;100543.41;6149632;23;20048;-81
2023/01/07 04:10:19;;;;;;;2.67;1.20;;;13.00;88.50;;;11.71;72.62;100533.81;6147540;23;20029;-80
2023/01/07 04:12:46;;;;;;;2.63;1.00;;;13.00;88.40;;;11.68;72.86;100532.41;6147589;23;20040;-80
2023/01/07 04:15:14;;;;;;;2.53;1.10;;;12.90;88.50;;;11.70;72.83;100529.50;6146353;23;20033;-80
2023/01/07 04:17:41;;;;;;;5.25;1.40;;;12.90;88.50;;;11.70;72.92;100530.31;6147661;23;20033;-80
2023/01/07 04:20:09;;;;;;;2.22;1.10;;;12.90;88.60;;;11.70;71.99;100529.50;6150072;23;20026;-80
2023/01/07 04:22:37;;;;;;;3.08;1.20;;;12.90;88.20;;;11.72;72.30;100527.44;6149926;23;20105;-80
2023/01/07 04:25:08;;;;;;;3.85;1.10;;;12.90;88.20;;;11.69;72.04;100528.69;6148450;23;20026;-80
2023/01/07 04:27:35;;;;;;;3.95;1.17;;;12.90;88.20;;;11.70;72.21;100521.50;6149455;23;20041;-81
2023/01/07 04:30:03;;;;;;;3.30;1.17;;;12.90;88.30;;;11.68;71.81;100519.03;6149747;23;20048;-81
2023/01/07 04:32:34;;;;;;;4.53;1.20;;;12.90;87.90;;;11.66;72.11;100512.28;6152199;23;20467;-80
2023/01/07 04:35:01;;;;;;;3.05;1.27;;;12.90;88.10;;;11.67;71.68;100509.41;6149916;23;20135;-81
2023/01/07 04:37:30;;;;;;;3.15;1.20;;;12.90;87.90;;;11.66;71.73;100507.75;6148710;23;20099;-80
2023/01/07 04:39:57;;;;;;;4.57;1.20;;;12.90;87.70;;;11.62;71.22;100509.22;6149942;23;20030;-81
2023/01/07 04:42:26;;;;;;;2.38;1.25;;;12.80;87.70;;;11.62;71.08;100509.22;6149333;23;20052;-81
2023/01/07 04:44:53;;;;;;;3.10;1.15;;;12.80;87.50;;;11.65;71.62;100507.97;6149636;23;20517;-80
2023/01/07 04:47:20;;;;;;;2.65;1.10;;;12.80;87.90;;;11.64;71.92;100504.47;6150324;23;20093;-80
2023/01/07 04:49:48;;;;;;;2.83;1.30;;;12.80;88.10;;;11.65;72.02;100494.59;6150041;23;20029;-81
2023/01/07 04:52:15;;;;;;;2.45;1.17;;;12.90;88.30;;;11.67;71.98;100492.56;6150279;23;20029;-81
2023/01/07 04:54:42;;;;;;;4.53;1.50;;;12.90;87.90;;;11.64;71.33;100491.13;6148854;23;20032;-80
2023/01/07 04:57:10;;;;;;;3.53;1.20;;;12.80;87.60;;;11.66;71.77;100486.38;6148713;23;20021;-81
2023/01/07 04:59:39;;;;;;;2.65;1.08;;;12.90;87.90;;;11.67;71.93;100487.22;6148521;23;20052;-81
2023/01/07 05:02:06;;;;;;;3.03;1.25;;;12.90;88.00;;;11.65;71.65;100482.06;6149940;23;20064;-80
2023/01/07 05:04:34;;;;;;;5.35;1.60;;;12.90;87.70;;;11.59;70.95;100482.94;6149671;23;20025;-81
2023/01/07 05:07:01;;;;;;;3.60;1.30;;;12.80;87.30;;;11.56;70.93;100480.69;6149008;23;20025;-81
2023/01/07 05:09:29;;;;;;;4.03;1.45;;;12.80;87.30;;;11.54;71.80;100466.75;6149827;23;20064;-80
2023/01/07 05:11:56;;;;;;;3.55;1.50;;;12.80;87.70;;;11.58;72.00;100474.13;6149341;23;20036;-80
2023/01/07 05:14:24;;;;;;;3.67;1.42;;;12.80;87.90;;;11.59;72.21;100470.41;6148499;23;20025;-80
2023/01/07 05:16:55;;;;;;;2.83;1.50;;;12.80;88.00;;;11.62;71.84;100469.16;6148180;23;20736;-80
2023/01/07 05:19:25;;;;;;;2.85;1.63;;;12.80;87.70;;;11.64;71.90;100464.41;6149642;23;20072;-81
2023/01/07 05:21:53;;;;;;;3.88;1.65;;;12.80;87.80;;;11.64;71.56;100460.91;6149592;23;20121;-81
2023/01/07 05:24:21;;;;;;;3.88;1.67;;;12.90;87.80;;;11.62;70.80;100463.81;6149262;23;20104;-80
2023/01/07 05:26:48;;;;;;;4.90;1.95;;;12.80;86.70;;;11.63;70.91;100457.44;6148308;23;20459;-81
2023/01/07 05:29:17;;;;;;;3.30;1.60;;;12.90;87.40;;;11.62;71.12;100446.97;6149285;23;20057;-80
2023/01/07 05:31:46;;;;;;;2.83;1.60;;;12.80;87.30;;;11.59;70.61;100456.22;6149505;23;20602;-81
2023/01/07 05:34:16;;;;;;;4.95;1.80;;;12.80;86.90;;;11.60;71.06;100444.50;6147825;23;20030;-81
2023/01/07 05:36:44;;;;;;;3.45;1.67;;;12.80;87.30;;;11.57;70.33;100444.97;6148149;23;20048;-81
2023/01/07 05:39:12;;;;;;;4.00;1.80;;;12.80;86.70;;;11.57;70.45;100453.78;6149239;23;20030;-81
2023/01/07 05:41:39;;;;;;;4.68;2.10;;;12.80;86.80;;;11.51;69.56;100443.13;6149175;23;20638;-81
2023/01/07 05:44:07;;;;;;;4.20;1.60;;;12.70;86.20;;;11.50;70.35;100434.31;6147162;23;20026;-81
2023/01/07 05:46:34;;;;;;;4.38;1.70;;;12.70;86.80;;;11.50;70.89;100439.66;6150202;23;20032;-81
2023/01/07 05:49:01;;;;;;;3.85;1.85;;;12.70;87.10;;;11.47;70.69;100445.44;6150249;23;20032;-81
2023/01/07 05:51:29;;;;;;;4.43;1.88;;;12.70;86.90;;;11.51;70.92;100437.78;6150890;23;20025;-81
2023/01/07 05:53:57;;;;;;;4.45;1.70;;;12.70;86.90;;;11.51;70.70;100438.63;6151050;23;20032;-81
2023/01/07 05:56:24;;;;;;;3.42;1.70;;;12.70;87.00;;;11.44;70.32;100437.88;6149655;23;20028;-81
2023/01/07 05:58:51;;;;;;;3.63;2.00;;;12.70;86.70;;;11.45;70.58;100441.34;6150845;23;20025;-81
2023/01/07 06:01:18;;;;;;;2.78;1.70;;;12.70;86.90;;;11.41;70.56;100440.94;6150181;23;20029;-81
2023/01/07 06:03:45;;;;;;;4.97;1.88;;;12.60;86.90;;;11.38;70.07;100436.06;6150443;23;20026;-81
2023/01/07 06:06:12;;;;;;;3.78;1.70;;;12.60;86.40;;;11.43;70.16;100438.09;6150430;23;20028;-81
2023/01/07 06:08:40;;;;;;;4.25;1.70;;;12.60;86.50;;;11.45;70.62;100431.47;6150622;23;20023;-81
2023/01/07 06:11:09;;;;;;;7.50;1.80;;;12.60;86.80;;;11.48;70.40;100430.25;6150678;23;20029;-81
2023/01/07 06:13:36;;;;;;;3.45;1.70;;;12.60;86.80;;;11.50;70.41;100434.31;6150407;23;20025;-81
2023/01/07 06:16:07;;;;;;;3.90;1.65;;;12.70;87.00;;;11.53;70.14;100422.38;6149839;23;20021;-81
2023/01/07 06:18:35;;;;;;;3.17;1.70;;;12.70;86.80;;;11.50;70.19;100430.81;6150466;23;20462;-81
2023/01/07 06:21:02;;;;;;;3.53;1.58;;;12.70;86.80;;;11.50;69.41;100426.31;6149908;23;20447;-81
2023/01/07 06:23:30;;;;;;;4.22;1.70;;;12.70;85.90;;;11.51;69.53;100425.25;6148930;23;20024;-81
2023/01/07 06:25:58;;;;;;;7.20;1.67;;;12.70;86.20;;;11.48;69.45;100430.25;6149666;23;20301;-81
2023/01/07 06:28:25;;;;;;;5.20;1.60;;;12.70;86.20;;;11.50;69.92;100430.81;6150139;23;20794;-81
2023/01/07 06:30:52;;;;;;;4.60;1.55;;;12.70;86.50;;;11.52;69.93;100424.25;6150845;23;20033;-81
2023/01/07 06:33:20;;;;;;;3.85;1.60;;;12.70;86.50;;;11.51;69.90;100421.78;6150240;23;20100;-81
2023/01/07 06:35:47;;;;;;;4.30;1.50;;;12.70;86.50;;;11.49;69.77;100415.84;6147528;23;20025;-81
2023/01/07 06:38:14;;;;;;;3.95;1.42;;;12.70;86.50;;;11.49;69.70;100410.50;6150608;23;20018;-81
2023/01/07 06:40:44;;;;;;;7.43;1.70;;;12.70;86.30;;;11.52;69.96;100410.06;6150451;23;20029;-81
2023/01/07 06:43:12;;;;;;;3.97;1.70;;;12.70;86.50;;;11.47;69.92;100399.22;6150713;23;20336;-81
2023/01/07 06:45:40;;;;;;;6.88;1.70;;;12.70;86.50;;;11.38;69.23;100404.03;6150324;23;20025;-81
2023/01/07 06:48:07;;;;;;;4.00;1.90;;;12.70;85.60;;;11.32;69.17;100403.06;6150107;23;20026;-81
2023/01/07 06:50:34;;;;;;;3.22;1.75;;;12.60;85.60;;;11.30;69.19;100399.75;6148787;23;20356;-81
2023/01/07 06:53:01;;;;;;;3.85;2.00;;;12.60;85.70;;;11.29;70.06;100395.47;6149850;23;20022;-81
2023/01/07 06:55:28;;;;;;;4.15;2.03;;;12.50;86.50;;;11.35;69.77;100402.59;6150540;23;20697;-81
2023/01/07 06:57:55;;;;;;;5.32;1.90;;;12.60;86.20;;;11.38;70.20;100389.84;6150569;23;20017;-81
2023/01/07 07:00:23;;;;;;;4.03;1.85;;;12.60;86.70;;;11.40;70.21;100387.78;6150955;23;20447;-82
2023/01/07 07:02:51;;;;;;;4.50;1.90;;;12.60;86.70;;;11.44;70.33;100394.31;6150430;23;20032;-79
2023/01/07 07:05:18;;;;;;;3.97;1.80;;;12.60;86.60;;;11.46;70.36;100385.03;6150542;23;20025;-79
2023/01/07 07:07:45;;;;;;;4.50;2.30;;;12.70;86.90;;;11.44;70.40;100392.47;6150134;23;20017;-78
2023/01/07 07:10:12;;;;;;;3.28;1.73;;;12.70;86.70;;;11.41;69.89;100389.41;6149824;23;20032;-77
2023/01/07 07:12:42;;;;;;;6.72;2.00;;;12.60;86.10;;;11.42;69.70;100383.03;6150415;23;20100;-79
2023/01/07 07:15:11;;;;;;;5.82;2.00;;;12.90;86.50;;;11.46;70.08;100390.38;6150190;23;20022;-78
2023/01/07 07:17:39;;;;;;;3.65;1.63;;;12.70;86.70;;;11.46;70.15;100377.03;6150103;23;20032;-79
2023/01/07 07:20:08;;;;;;;3.45;1.83;;;12.70;86.70;;;11.48;70.49;100392.84;6148957;23;20029;-78
2023/01/07 07:22:35;;;;;;;3.53;1.83;;;12.70;86.90;;;11.51;70.28;100389.72;6150332;23;20028;-78
2023/01/07 07:25:02;;;;;;;3.00;1.65;;;12.70;86.80;;;11.51;69.83;100387.06;6150028;23;20028;-78
2023/01/07 07:27:29;;;;;;;3.42;1.60;;;12.70;86.50;;;11.49;70.34;100387.28;6148325;23;20028;-78
2023/01/07 07:29:57;;;;;;;3.72;1.65;;;12.70;86.90;;;11.46;70.34;100395.72;6149870;23;20025;-78
2023/01/07 07:32:27;;;;;;;4.28;1.80;;;12.70;86.70;;;11.48;69.65;100382.16;6150319;23;20096;-79
2023/01/07 07:34:56;;;;;;;3.20;1.40;;;12.70;86.10;;;11.46;69.02;100385.03;6150662;23;20045;-79
2023/01/07 07:37:23;;;;;;;3.28;1.35;;;12.70;85.90;;;11.46;69.05;100386.91;6149493;23;20021;-78
2023/01/07 07:39:50;;;;;;;4.07;1.23;;;12.70;85.90;;;11.48;69.68;100376.81;6148822;23;20028;-78
2023/01/07 07:42:17;;;;;;;4.53;1.65;;;12.70;86.40;;;11.52;69.89;100372.69;6149626;23;20092;-79
2023/01/07 07:44:45;;;;;;;4.03;1.60;;;12.70;86.70;;;11.54;70.09;100371.41;6148081;23;20025;-80
2023/01/07 07:47:12;;;;;;;2.72;1.30;;;12.70;86.70;;;11.59;70.43;100379.59;6149405;23;20021;-79
2023/01/07 07:49:39;;;;;;;5.55;1.50;;;12.80;86.80;;;11.60;70.12;100367.03;6150096;23;20722;-79
2023/01/07 07:52:07;;;;;;;5.20;1.30;;;12.80;86.70;;;11.54;69.45;100365.25;6150174;23;20026;-79
2023/01/07 07:54:34;;;;;;;4.97;1.63;;;12.70;86.10;;;11.53;68.46;100363.63;6149727;23;20025;-79
2023/01/07 07:57:02;;;;;;;3.10;1.35;;;12.70;85.50;;;11.51;68.12;100360.34;6149535;23;20442;-79
2023/01/07 07:59:29;;;;;;;3.85;1.60;;;12.70;84.90;;;11.46;68.43;100355.66;6152007;23;20459;-79
2023/01/07 08:01:57;;;;;;;6.03;1.55;;;12.70;85.30;;;11.50;68.33;100351.53;6152177;23;20021;-79
2023/01/07 08:04:24;;;;;;;4.43;1.70;;;12.70;85.20;;;11.49;68.48;100349.91;6152336;23;20478;-79
2023/01/07 08:06:51;;;;;;;3.20;1.63;;;12.70;85.50;;;11.46;67.89;100344.16;6151731;23;20022;-79
2023/01/07 08:09:20;;;;;;;4.07;1.33;;;12.70;84.90;;;11.46;67.44;100341.50;6152728;23;20025;-79
2023/01/07 08:11:47;;;;;;;3.17;1.23;;;12.70;84.50;;;11.43;67.64;100336.63;6152876;23;20100;-78
2023/01/07 08:14:14;;;;;;;4.20;1.52;;;12.60;84.60;;;11.41;66.71;100328.81;6151640;23;20017;-78
2023/01/07 08:16:41;;;;;;;2.72;1.30;;;12.60;83.70;;;11.43;67.19;100332.09;6151868;23;20047;-80
2023/01/07 08:19:08;;;;;;;3.25;1.20;;;12.60;84.30;;;11.47;67.35;100335.13;6150539;23;20048;-81
2023/01/07 08:21:35;;;;;;;3.55;1.20;;;12.60;84.30;;;11.46;67.19;100330.81;6152094;23;20018;-81
2023/01/07 08:24:03;;;;;;;3.20;1.17;;;12.60;83.90;;;11.46;66.53;100328.94;6151900;23;20026;-78
2023/01/07 08:26:31;;;;;;;4.07;1.13;;;12.60;83.30;;;11.42;66.55;100330.47;6151733;23;20083;-78
2023/01/07 08:28:58;;;;;;;2.50;1.13;;;12.60;83.70;;;11.42;66.45;100327.78;6151925;23;20025;-79
2023/01/07 08:31:26;;;;;;;3.50;1.10;;;12.60;83.30;;;11.40;65.96;100331.69;6151167;23;20029;-78
2023/01/07 08:33:53;;;;;;;2.92;1.10;;;12.60;83.00;;;11.39;65.80;100327.41;6151828;23;20033;-78
2023/01/07 08:36:20;;;;;;;3.90;1.10;;;12.60;82.80;;;11.38;65.25;100339.94;6150667;23;20362;-79
2023/01/07 08:38:51;;;;;;;4.60;1.20;;;12.60;82.30;;;11.38;64.41;100334.59;6150347;23;20025;-78
2023/01/07 08:41:18;;;;;;;;;;;12.60;81.60;;;11.38;64.72;100336.47;6152059;23;20029;-79
2023/01/07 08:43:46;;;;;;;3.25;1.27;;;12.60;81.90;;;11.38;64.53;100339.13;6150743;23;20254;-79
2023/01/07 08:46:14;;;;;;;2.10;1.10;;;12.60;81.60;;;11.37;63.35;100330.31;6150867;23;20274;-81
2023/01/07 08:48:41;;;;;;;6.43;1.13;;;12.60;80.40;;;11.34;64.35;100320.88;6151637;23;20028;-80
2023/01/07 08:51:08;;;;;;;3.05;1.35;;;12.50;81.60;;;11.37;64.74;100326.78;6150754;23;20460;-80
2023/01/07 08:53:35;;;;;;;3.65;1.17;;;12.60;82.00;;;11.38;63.89;100325.78;6151466;23;20021;-81
2023/01/07 08:56:02;;;;;;;3.25;1.30;;;12.60;80.90;;;11.39;64.51;100328.22;6148525;23;20749;-80
2023/01/07 08:58:29;;;;;;;2.67;1.20;;;12.50;81.90;;;11.42;64.91;100319.78;6150367;23;20042;-80
2023/01/07 09:01:02;;;;;;;5.50;1.30;;;12.60;82.40;;;11.41;64.07;100322.66;6151189;23;20028;-80
2023/01/07 09:03:29;;;;;;;3.45;1.30;;;12.60;81.00;;;11.44;64.97;100327.56;6150592;23;20113;-80
2023/01/07 09:05:56;;;;;;;3.17;1.17;;;12.60;82.20;;;11.46;65.78;100318.28;6149392;23;20448;-80
2023/01/07 09:08:24;;;;;;;4.05;1.13;;;12.70;83.10;;;11.50;66.38;100321.31;6151399;23;20018;-80
2023/01/07 09:10:51;;;;;;;4.15;1.60;;;12.70;83.50;;;11.50;65.04;100307.97;6150428;23;20028;-80
2023/01/07 09:13:18;;;;;;;3.35;1.45;;;12.70;82.40;;;11.48;64.31;100304.72;6150445;23;20460;-80
2023/01/07 09:15:45;;;;;;;3.40;1.10;;;12.70;81.60;;;11.50;64.55;100313.31;6150498;23;20021;-80
2023/01/07 09:18:14;;;;;;;5.75;1.42;;;12.70;81.60;;;11.52;64.77;100303.25;6149266;23;20100;-81
2023/01/07 09:20:41;;;;;;;3.97;1.60;;;12.70;82.00;;;11.50;64.57;100307.97;6150382;23;20096;-79
2023/01/07 09:23:08;;;;;;;5.10;1.30;;;12.70;81.90;;;11.51;64.79;100312.28;6150133;23;20036;-81
2023/01/07 09:25:35;;;;;;;5.22;1.25;;;12.70;82.00;;;11.49;65.11;100311.69;6151314;23;20028;-81
2023/01/07 09:28:02;;;;;;;2.65;1.20;;;12.70;82.30;;;11.49;65.38;100311.69;6150073;23;20021;-81
2023/01/07 09:30:30;;;;;;;3.42;1.50;;;12.70;82.60;;;11.54;66.06;100309.97;6150461;23;20433;-81
2023/01/07 09:32:57;;;;;;;2.55;1.25;;;12.80;83.10;;;11.53;64.58;100303.00;6150805;23;20030;-79
2023/01/07 09:35:25;;;;;;;2.70;1.10;;;12.80;81.60;;;11.45;65.46;100299.81;6149909;23;20076;-80
2023/01/07 09:37:52;;;;;;;7.70;1.35;;;12.70;82.40;;;11.48;65.97;100299.38;6149961;23;20028;-82
2023/01/07 09:40:25;;;;;;;3.33;1.30;;;12.70;82.80;;;11.52;65.48;100297.91;6150231;23;20450;-79
2023/01/07 09:46:02;;;;;;;2.40;1.02;;;12.80;81.70;;;11.54;64.59;100288.63;6004865;23;20062;-78
2023/01/07 09:48:35;;;;;;;6.05;1.20;;;12.70;81.70;;;11.51;63.96;100283.72;6006477;23;20023;-81
2023/01/07 09:51:08;;;;;;;2.67;1.30;;;12.80;81.10;;;11.49;64.47;100283.13;6006349;23;20447;-81
2023/01/07 09:53:41;;;;;;;2.95;1.20;;;12.70;81.40;;;11.43;63.74;100285.88;6012821;23;20023;-81
2023/01/07 09:56:23;;;;;;;3.70;1.33;;;12.60;81.00;;;11.42;64.68;100281.53;6032285;23;20030;-81
2023/01/07 09:58:50;;;;;;;2.95;1.20;;;12.60;81.70;;;11.41;63.67;100283.41;6032644;23;20573;-81
2023/01/07 10:01:27;;;;;;;2.20;1.08;;;12.60;80.60;;;11.41;64.55;100278.06;6033621;23;20437;-81
2023/01/07 10:04:10;;;;;;;2.85;1.20;;;12.60;81.70;;;11.42;64.87;100270.88;6032398;23;20050;-81
2023/01/07 10:06:52;;;;;;;5.15;1.02;;;12.60;81.80;;;11.45;64.91;100271.25;6034485;23;20063;-81
2023/01/07 10:09:33;;;;;;;3.28;1.10;;;12.60;82.00;;;11.48;64.92;100262.00;6034700;23;20030;-81
2023/01/07 10:12:12;;;;;;;5.05;1.38;;;12.70;82.10;;;11.52;64.74;100256.00;6034420;23;20031;-81
2023/01/07 10:15:22;;;;;;;2.53;1.20;;;12.70;82.00;;;11.52;64.90;100258.66;6033072;23;20458;-81
2023/01/07 10:18:17;;;;;;;6.18;1.25;;;12.70;82.00;;;11.58;64.53;100256.94;6034397;23;20031;-81
2023/01/07 10:20:51;;;;;;;2.60;1.20;;;12.80;81.80;;;11.62;64.53;100260.81;6034649;23;20027;-81
2023/01/07 10:23:27;;;;;;;3.30;1.30;;;12.80;81.60;;;11.65;64.43;100244.31;6034974;23;20094;-81
2023/01/07 10:25:57;;;;;;;3.60;1.23;;;12.80;81.80;;;11.66;64.11;100253.13;6034908;23;20034;-81
2023/01/07 10:28:32;;;;;;;3.22;1.40;;;12.80;81.30;;;11.70;64.40;100246.31;6034242;23;20054;-81
2023/01/07 10:31:02;;;;;;;4.72;1.75;;;12.90;81.70;;;11.65;63.84;100238.97;6035202;23;20107;-81
2023/01/07 10:33:33;;;;;;;4.88;1.42;;;12.80;81.00;;;11.72;64.54;100236.25;6033497;23;20703;-81